CDT,Max TemperatureF,Mean TemperatureF,Min TemperatureF,Max Dew PointF,MeanDew PointF,Min DewpointF,Max Humidity, Mean Humidity, Min Humidity, Max Sea Level PressureIn, Mean Sea Level PressureIn, Min Sea Level PressureIn, Max VisibilityMiles, Mean VisibilityMiles, Min VisibilityMiles, Max Wind SpeedMPH, Mean Wind SpeedMPH, Max Gust SpeedMPH,PrecipitationIn, CloudCover, Events, WindDirDegrees
2013-3-1,30,20,10,20,15,6,88,68,56,30.32,30.26,30.15,10,10,10,9,5,16,0.00,5,Snow,34
2013-3-2,30,16,1,11,6,-2,88,67,37,30.35,30.26,30.18,10,8,1,9,1,,0.00,0,,332
2013-3-3,36,18,1,11,7,-3,96,61,30,30.22,30.16,30.09,10,10,5,6,1,,0.00,0,,53
2013-3-4,33,27,21,23,17,10,75,65,55,30.12,30.06,30.00,10,10,10,9,5,17,0.00,7,,71
2013-3-5,30,29,28,27,25,21,93,85,74,30.21,30.00,29.93,10,2,0,13,5,20,0.21,8,Fog-Snow,24
2013-3-6,30,19,8,21,15,5,92,79,59,30.39,30.33,30.19,10,6,1,13,5,17,0.00,3,,334
2013-3-7,35,18,1,20,12,-4,100,74,52,30.47,30.43,30.40,10,9,7,6,1,,0.00,0,,146
2013-3-8,39,24,10,26,20,8,95,75,60,30.47,30.39,30.25,10,8,4,10,2,,0.00,0,,125
2013-3-9,41,38,34,39,34,26,100,86,70,30.23,29.92,29.75,9,4,1,9,4,23,0.42,8,Rain,174
2013-3-10,39,37,35,38,37,33,100,95,89,29.82,29.73,29.64,10,3,0,9,3,20,0.46,8,Fog-Rain,44
2013-3-11,35,32,30,33,28,24,92,82,75,29.84,29.70,29.63,10,9,2,12,6,16,0.00,8,Snow,318
2013-3-12,32,28,24,28,22,15,93,77,61,30.12,29.93,29.84,10,6,1,16,7,24,0.01,7,Snow,270
2013-3-13,34,26,19,18,12,8,77,56,35,30.38,30.32,30.13,10,10,10,13,6,17,0.00,0,,282
2013-3-14,37,28,19,28,22,15,88,79,69,30.36,30.22,30.06,10,6,0,8,1,,0.05,5,Fog-Snow,103
2013-3-15,37,29,21,34,29,19,100,90,86,30.06,29.92,29.79,4,3,1,7,1,,0.09,6,Rain,57
2013-3-16,33,30,26,31,23,17,92,77,64,30.21,30.03,29.82,10,9,4,10,5,,0.00,7,,23
2013-3-17,33,26,19,20,14,7,69,59,49,30.28,30.17,30.01,10,10,7,10,6,17,0.00,1,,77
2013-3-18,34,26,17,30,22,9,93,82,65,29.98,29.74,29.60,10,4,0,17,5,28,0.21,7,Fog-Rain-Snow,247
2013-3-19,30,20,12,9,6,3,74,58,41,30.17,30.02,29.81,10,9,4,18,13,29,0.00,3,Snow,266
2013-3-20,21,14,8,7,3,-3,85,62,48,30.21,30.15,30.10,10,9,1,16,7,25,0.00,2,,284
2013-3-21,30,16,3,11,5,-2,87,69,40,30.15,30.10,30.05,10,7,1,7,1,,0.00,0,,273
2013-3-22,37,22,7,19,12,3,87,66,36,30.13,30.10,30.05,10,10,7,5,0,,0.00,0,,180
2013-3-23,42,29,17,22,18,15,92,62,38,30.17,30.12,30.07,10,9,6,6,1,,0.00,0,,46
2013-3-24,34,32,30,28,25,21,87,74,66,30.08,29.93,29.84,10,6,1,13,5,20,0.00,7,Snow,29
2013-3-25,36,31,26,23,21,17,72,63,54,30.18,30.03,29.90,10,10,10,15,9,22,0.00,7,,348
2013-3-26,39,32,25,24,19,15,75,56,36,30.32,30.26,30.18,10,10,9,9,5,,0.00,6,,323
2013-3-27,45,35,26,25,21,16,80,61,32,30.37,30.34,30.31,10,9,2,9,2,,0.00,4,Rain,257
2013-3-28,48,34,21,27,22,17,88,62,29,30.40,30.35,30.31,10,9,2,5,1,,0.00,4,Rain,242
2013-3-29,54,38,24,29,25,20,91,62,31,30.37,30.30,30.22,10,10,5,6,1,,0.00,2,,10
2013-3-30,54,44,36,45,38,26,100,79,52,30.21,29.95,29.85,10,6,1,16,5,23,0.07,7,Rain,214
2013-3-31,44,38,33,38,31,16,100,81,41,29.97,29.84,29.80,10,5,0,16,4,24,0.00,6,Fog,258